Time;durP1;ratioP1;P1;durP2;ratioP2;P2;SDS_P1;SDS_P2;PMS_P1;PMS_P2;Temp;Humidity;BMP_temperature;BMP_pressure;BME280_temperature;BME280_humidity;BME280_pressure;Samples;Min_cycle;Max_cycle;Signal;HPM_P1;HPM_P2
2021/12/20 00:00:17;;;;;;;24.65;4.75;;;;;;;-141.50;100.00;63355.56;4946947;28;20080;-84
2021/12/20 00:02:46;;;;;;;21.58;4.50;;;;;;;-141.50;100.00;63355.56;4939679;29;20063;-84
2021/12/20 00:05:14;;;;;;;22.17;3.70;;;;;;;-141.50;100.00;63355.56;4936595;29;20477;-84
2021/12/20 00:07:41;;;;;;;21.25;3.10;;;;;;;-141.50;100.00;63355.56;4939587;29;20059;-83
2021/12/20 00:10:08;;;;;;;17.38;3.03;;;;;;;-141.50;100.00;63355.56;4954282;29;20047;-83
2021/12/20 00:12:35;;;;;;;23.70;2.97;;;;;;;-141.50;100.00;63355.56;4941133;29;20094;-84
2021/12/20 00:15:02;;;;;;;20.73;3.40;;;;;;;-141.50;100.00;63355.56;4941845;29;20661;-84
2021/12/20 00:17:28;;;;;;;23.67;3.80;;;;;;;-141.50;100.00;63355.56;4956507;28;20083;-84
2021/12/20 00:19:55;;;;;;;22.90;3.85;;;;;;;-141.50;100.00;63355.56;4941551;29;20058;-85
2021/12/20 00:22:21;;;;;;;22.65;4.00;;;;;;;-141.50;100.00;63355.56;4943950;29;20048;-84
2021/12/20 00:24:48;;;;;;;27.05;3.92;;;;;;;-141.50;100.00;63355.56;4942657;29;20067;-84
2021/12/20 00:27:19;;;;;;;18.77;3.75;;;;;;;-141.50;100.00;63355.56;4956157;28;20576;-84
2021/12/20 00:29:47;;;;;;;27.63;4.90;;;;;;;-141.50;100.00;63355.56;4941739;28;20131;-84
2021/12/20 00:32:14;;;;;;;28.40;4.53;;;;;;;-141.50;100.00;63355.56;4940827;29;20044;-84
2021/12/20 00:34:41;;;;;;;25.77;4.63;;;;;;;-141.50;100.00;63355.56;4947147;29;20087;-83
2021/12/20 00:40:20;;;;;;;25.58;4.15;;;;;;;-141.50;100.00;63355.56;4965804;28;20500;-82
2021/12/20 00:42:42;;;;;;;23.98;5.30;;;;;;;-141.50;100.00;63355.56;4954338;29;20052;-81
2021/12/20 00:45:10;;;;;;;24.33;4.65;;;;;;;-141.50;100.00;63355.56;4957951;29;20599;-84
2021/12/20 00:47:38;;;;;;;29.48;4.90;;;;;;;-141.50;100.00;63355.56;4939696;29;20047;-83
2021/12/20 00:50:06;;;;;;;27.13;4.50;;;;;;;-141.50;100.00;63355.56;4939174;29;20052;-83
2021/12/20 00:52:33;;;;;;;29.70;5.47;;;;;;;-141.50;100.00;63355.56;4939512;29;20099;-83
2021/12/20 00:55:00;;;;;;;22.25;4.20;;;;;;;-141.50;100.00;63355.56;4938710;29;20389;-82
2021/12/20 00:57:26;;;;;;;22.27;4.95;;;;;;;-141.50;100.00;63355.56;4938779;29;20051;-84
2021/12/20 00:59:55;;;;;;;24.60;4.22;;;;;;;-141.50;100.00;63355.56;4939685;29;20058;-84
2021/12/20 01:02:22;;;;;;;21.90;4.90;;;;;;;-141.50;100.00;63355.56;4938052;29;20139;-82
2021/12/20 01:04:49;;;;;;;27.02;5.97;;;;;;;-141.50;100.00;63355.56;4939507;29;20284;-84
2021/12/20 01:07:15;;;;;;;16.73;4.13;;;;;;;-141.50;100.00;63355.56;4954760;29;20047;-84
2021/12/20 01:09:42;;;;;;;24.42;4.43;;;;;;;-141.50;100.00;63355.56;4939330;29;20056;-85
2021/12/20 01:12:16;;;;;;;19.63;3.70;;;;;;;-141.50;100.00;63355.56;4941149;29;20389;-83
2021/12/20 01:14:43;;;;;;;13.98;3.75;;;;;;;-141.50;100.00;63355.56;4941844;29;20464;-83
2021/12/20 01:17:09;;;;;;;16.60;3.60;;;;;;;-141.50;100.00;63355.56;4955347;28;20066;-83
2021/12/20 01:19:37;;;;;;;23.70;4.20;;;;;;;-141.50;100.00;63355.56;4939224;29;20079;-83
2021/12/20 01:22:05;;;;;;;16.92;3.65;;;;;;;-141.50;100.00;63355.56;4939021;29;20071;-84
2021/12/20 01:24:33;;;;;;;15.88;3.35;;;;;;;-141.50;100.00;63355.56;4940913;29;20306;-83
2021/12/20 01:26:59;;;;;;;14.88;4.18;;;;;;;-141.50;100.00;63355.56;4951496;29;20449;-83
2021/12/20 01:29:26;;;;;;;15.93;3.85;;;;;;;-141.50;100.00;63355.56;4946948;29;20056;-84
2021/12/20 01:31:52;;;;;;;18.00;3.75;;;;;;;-141.50;100.00;63355.56;4939442;29;20052;-83
2021/12/20 01:34:19;;;;;;;26.70;4.20;;;;;;;-141.50;100.00;63355.56;4939437;29;20118;-83
2021/12/20 01:36:45;;;;;;;15.90;3.42;;;;;;;-141.50;100.00;63355.56;4937869;29;20048;-82
2021/12/20 01:39:12;;;;;;;22.15;3.65;;;;;;;-141.50;100.00;63355.56;4939086;29;20052;-81
2021/12/20 01:41:41;;;;;;;24.80;3.75;;;;;;;-141.50;100.00;63355.56;4939811;29;20048;-85
2021/12/20 01:44:08;;;;;;;22.10;3.10;;;;;;;-141.50;100.00;63355.56;4954624;28;20071;-85
2021/12/20 01:46:35;;;;;;;21.08;3.40;;;;;;;-141.50;100.00;63355.56;4943508;29;20071;-82
2021/12/20 01:49:06;;;;;;;16.90;3.15;;;;;;;-141.50;100.00;63355.56;4954600;29;20051;-82
2021/12/20 01:54:03;;;;;;;26.88;3.17;;;;;;;-141.50;100.00;63355.56;4939057;29;20251;-83
2021/12/20 01:56:32;;;;;;;23.00;2.92;;;;;;;-141.50;100.00;63355.56;4937995;29;20055;-83
2021/12/20 01:59:03;;;;;;;18.77;2.53;;;;;;;-141.50;100.00;63355.56;4938299;29;20083;-83
2021/12/20 02:01:30;;;;;;;16.60;2.67;;;;;;;-141.50;100.00;63355.56;4938548;29;20087;-84
2021/12/20 02:04:00;;;;;;;20.85;3.72;;;;;;;-141.50;100.00;63355.56;4942438;29;20055;-83
2021/12/20 02:09:01;;;;;;;21.23;2.70;;;;;;;-141.50;100.00;63355.56;4937548;29;20109;-84
2021/12/20 02:11:29;;;;;;;17.63;2.92;;;;;;;-141.50;100.00;63355.56;4957432;28;20150;-83
2021/12/20 02:13:56;;;;;;;18.33;2.70;;;;;;;-141.50;100.00;63355.56;4954015;28;20047;-83
2021/12/20 02:16:23;;;;;;;18.63;2.85;;;;;;;-141.50;100.00;63355.56;4952600;28;20075;-85
2021/12/20 02:18:50;;;;;;;24.48;2.92;;;;;;;-141.50;100.00;63355.56;4960977;28;20067;-83
2021/12/20 02:21:18;;;;;;;18.50;2.88;;;;;;;-141.50;100.00;63355.56;4958374;28;20047;-84
2021/12/20 02:23:45;;;;;;;27.45;2.80;;;;;;;-141.50;100.00;63355.56;4951616;29;20048;-85
2021/12/20 02:26:14;;;;;;;25.65;3.20;;;;;;;-141.50;100.00;63355.56;4935175;29;20056;-84
2021/12/20 02:28:45;;;;;;;22.27;2.88;;;;;;;-141.50;100.00;63355.56;4937074;29;20564;-85
2021/12/20 02:39:19;;;;;;;22.30;3.25;;;;;;;-141.50;100.00;63355.56;4958034;28;20084;-82
2021/12/20 02:41:46;;;;;;;13.02;2.50;;;;;;;-141.50;100.00;63355.56;4973526;28;20040;-80
2021/12/20 02:44:20;;;;;;;17.85;2.20;;;;;;;-141.50;100.00;63355.56;4952170;29;20084;-84
2021/12/20 02:47:03;;;;;;;22.27;2.80;;;;;;;-141.50;100.00;63355.56;4951249;29;20655;-84
2021/12/20 02:49:31;;;;;;;21.67;2.63;;;;;;;-141.50;100.00;63355.56;4941022;29;20069;-84
2021/12/20 02:52:07;;;;;;;23.17;2.90;;;;;;;-141.50;100.00;63355.56;4942531;29;20047;-83
2021/12/20 02:54:36;;;;;;;17.80;2.70;;;;;;;-141.50;100.00;63355.56;4955251;28;20051;-81
2021/12/20 02:57:04;;;;;;;15.95;2.03;;;;;;;-141.50;100.00;63355.56;4956355;29;20084;-80
2021/12/20 02:59:31;;;;;;;25.83;2.83;;;;;;;-141.50;100.00;63355.56;4965149;28;20062;-84
2021/12/20 03:02:07;;;;;;;22.52;2.47;;;;;;;-141.50;100.00;63355.56;4943993;28;20432;-85
2021/12/20 03:04:34;;;;;;;25.33;2.85;;;;;;;-141.50;100.00;63355.56;4958238;29;20154;-84
2021/12/20 03:07:04;;;;;;;27.95;3.55;;;;;;;-141.50;100.00;63355.56;4940613;29;20051;-81
2021/12/20 03:09:36;;;;;;;15.07;2.38;;;;;;;-141.50;100.00;63355.56;4936394;29;20060;-82
2021/12/20 03:12:08;;;;;;;15.88;2.67;;;;;;;-141.50;100.00;63355.56;4936205;29;20044;-82
2021/12/20 03:14:41;;;;;;;19.35;2.78;;;;;;;-141.50;100.00;63355.56;4941810;29;20040;-82
2021/12/20 03:17:09;;;;;;;18.63;3.00;;;;;;;-141.50;100.00;63355.56;4950041;28;20046;-82
2021/12/20 03:19:37;;;;;;;22.27;2.80;;;;;;;-141.50;100.00;63355.56;4946570;28;20055;-81
2021/12/20 03:22:05;;;;;;;29.58;3.40;;;;;;;-141.50;100.00;63355.56;4955547;28;20048;-82
2021/12/20 03:24:33;;;;;;;21.92;3.20;;;;;;;-141.50;100.00;63355.56;4955291;29;20587;-82
2021/12/20 03:26:59;;;;;;;32.97;3.35;;;;;;;-141.50;100.00;63355.56;4942031;29;20059;-83
2021/12/20 03:29:26;;;;;;;26.90;3.55;;;;;;;-141.50;100.00;63355.56;4941482;29;20058;-83
2021/12/20 03:31:52;;;;;;;21.55;3.50;;;;;;;-141.50;100.00;63355.56;4941180;29;20047;-82
2021/12/20 03:34:19;;;;;;;24.67;3.67;;;;;;;-141.50;100.00;63355.56;4940970;29;20083;-84
2021/12/20 03:36:46;;;;;;;22.40;3.65;;;;;;;-141.50;100.00;63355.56;4940537;29;20055;-83
2021/12/20 03:39:13;;;;;;;25.85;4.13;;;;;;;-141.50;100.00;63355.56;4942118;29;20287;-84
2021/12/20 03:41:40;;;;;;;26.27;4.80;;;;;;;-141.50;100.00;63355.56;4959381;29;20056;-83
2021/12/20 03:44:08;;;;;;;18.40;4.40;;;;;;;-141.50;100.00;63355.56;4947237;28;20052;-83
2021/12/20 03:46:35;;;;;;;33.88;5.53;;;;;;;-141.50;100.00;63355.56;4941169;29;20066;-82
2021/12/20 03:49:03;;;;;;;30.23;4.78;;;;;;;-141.50;100.00;63355.56;4942178;29;20119;-83
2021/12/20 03:51:30;;;;;;;24.70;5.13;;;;;;;-141.50;100.00;63355.56;4942043;29;20051;-83
2021/12/20 03:53:57;;;;;;;25.00;4.80;;;;;;;-141.50;100.00;63355.56;4943824;29;20051;-83
2021/12/20 03:56:24;;;;;;;26.92;4.70;;;;;;;-141.50;100.00;63355.56;4941419;29;20055;-83
2021/12/20 03:58:51;;;;;;;33.55;5.07;;;;;;;-141.50;100.00;63355.56;4943908;29;20056;-83
2021/12/20 04:01:18;;;;;;;28.75;4.65;;;;;;;-141.50;100.00;63355.56;4941877;29;20079;-84
2021/12/20 04:03:45;;;;;;;22.40;5.32;;;;;;;-141.50;100.00;63355.56;4959554;28;20040;-82
2021/12/20 04:06:14;;;;;;;21.73;4.90;;;;;;;-141.50;100.00;63355.56;4942144;29;20141;-83
2021/12/20 04:08:42;;;;;;;28.55;4.68;;;;;;;-141.50;100.00;63355.56;4940320;29;20071;-82
2021/12/20 04:11:09;;;;;;;30.48;4.40;;;;;;;-141.50;100.00;63355.56;4940348;29;20058;-83
2021/12/20 04:13:36;;;;;;;23.98;4.30;;;;;;;-141.50;100.00;63355.56;4941150;29;20421;-83
2021/12/20 04:16:03;;;;;;;33.13;4.82;;;;;;;-141.50;100.00;63355.56;4940125;29;20116;-84
2021/12/20 04:18:30;;;;;;;25.13;4.60;;;;;;;-141.50;100.00;63355.56;4941745;29;20064;-84
2021/12/20 04:21:01;;;;;;;15.70;4.22;;;;;;;-141.50;100.00;63355.56;4943818;29;20071;-84
2021/12/20 04:23:30;;;;;;;30.75;4.53;;;;;;;-141.50;100.00;63355.56;4959479;28;20083;-85
2021/12/20 04:25:57;;;;;;;25.65;4.68;;;;;;;-141.50;100.00;63355.56;4942270;29;20052;-84
2021/12/20 04:28:23;;;;;;;28.92;4.90;;;;;;;-141.50;100.00;63355.56;4941465;29;20429;-84
2021/12/20 04:30:50;;;;;;;34.35;5.32;;;;;;;-141.50;100.00;63355.56;4955858;28;20060;-84
2021/12/20 04:33:19;;;;;;;35.28;6.50;;;;;;;-141.50;100.00;63355.56;4942363;29;20252;-83
2021/12/20 04:35:47;;;;;;;32.78;5.30;;;;;;;-141.50;100.00;63355.56;4943428;29;20070;-80
2021/12/20 04:38:15;;;;;;;26.42;4.35;;;;;;;-141.50;100.00;63355.56;4947126;29;20047;-83
2021/12/20 04:40:41;;;;;;;32.45;5.35;;;;;;;-141.50;100.00;63355.56;4953937;29;20127;-82
2021/12/20 04:43:08;;;;;;;26.40;5.03;;;;;;;-141.50;100.00;63355.56;4954447;28;20055;-81
2021/12/20 04:45:35;;;;;;;29.00;4.40;;;;;;;-141.50;100.00;63355.56;4951057;28;20067;-82
2021/12/20 04:48:07;;;;;;;24.63;4.78;;;;;;;-141.50;100.00;63355.56;4960025;28;20056;-83
2021/12/20 04:50:33;;;;;;;26.08;4.57;;;;;;;-141.50;100.00;63355.56;4943214;29;20118;-85
2021/12/20 04:53:00;;;;;;;16.05;4.25;;;;;;;-141.50;100.00;63355.56;4947554;29;20053;-84
2021/12/20 04:55:28;;;;;;;22.25;4.43;;;;;;;-141.50;100.00;63355.56;4939633;29;20048;-85
2021/12/20 04:57:56;;;;;;;28.33;4.90;;;;;;;-141.50;100.00;63355.56;4944532;29;20075;-83
2021/12/20 05:00:26;;;;;;;26.38;4.22;;;;;;;-141.50;100.00;63355.56;4944562;29;20552;-81
2021/12/20 05:02:52;;;;;;;36.70;5.63;;;;;;;-141.50;100.00;63355.56;4955540;29;20052;-81
2021/12/20 05:05:21;;;;;;;35.90;5.35;;;;;;;-141.50;100.00;63355.56;4955923;29;20051;-80
2021/12/20 05:07:48;;;;;;;32.88;4.70;;;;;;;-141.50;100.00;63355.56;4953271;29;20047;-82
2021/12/20 05:10:30;;;;;;;27.90;4.90;;;;;;;-141.50;100.00;63355.56;4947527;29;20091;-84
2021/12/20 05:13:02;;;;;;;46.95;5.25;;;;;;;-141.50;100.00;63355.56;4944523;29;20165;-82
2021/12/20 05:15:29;;;;;;;33.88;4.53;;;;;;;-141.50;100.00;63355.56;4942189;29;20389;-82
2021/12/20 05:17:56;;;;;;;21.10;4.43;;;;;;;-141.50;100.00;63355.56;4941984;29;20111;-84
2021/12/20 05:20:24;;;;;;;30.02;4.93;;;;;;;-141.50;100.00;63355.56;4956645;28;20059;-84
2021/12/20 05:22:51;;;;;;;27.00;4.90;;;;;;;-141.50;100.00;63355.56;4942172;28;20055;-83
2021/12/20 05:25:18;;;;;;;26.13;5.07;;;;;;;-141.50;100.00;63355.56;4957444;28;20091;-85
2021/12/20 05:27:46;;;;;;;27.75;4.80;;;;;;;-141.50;100.00;63355.56;4945719;29;20051;-84
2021/12/20 05:30:14;;;;;;;24.13;4.63;;;;;;;-141.50;100.00;63355.56;4935374;29;20102;-84
2021/12/20 05:32:42;;;;;;;28.58;5.05;;;;;;;-141.50;100.00;63355.56;4937454;29;20068;-82
2021/12/20 05:35:10;;;;;;;29.70;5.22;;;;;;;-141.50;100.00;63355.56;4954125;28;20144;-83
2021/12/20 05:37:38;;;;;;;27.60;4.80;;;;;;;-141.50;100.00;63355.56;4940310;29;20047;-80
2021/12/20 05:40:07;;;;;;;29.58;6.00;;;;;;;-141.50;100.00;63355.56;4940991;28;20078;-82
2021/12/20 05:42:33;;;;;;;25.33;5.18;;;;;;;-141.50;100.00;63355.56;4940965;29;20123;-82
2021/12/20 05:45:00;;;;;;;26.27;5.05;;;;;;;-141.50;100.00;63355.56;4945623;29;20055;-80
2021/12/20 05:47:26;;;;;;;27.40;4.63;;;;;;;-141.50;100.00;63355.56;4936470;29;20059;-83
2021/12/20 05:49:53;;;;;;;38.28;5.80;;;;;;;-141.50;100.00;63355.56;4935049;29;20059;-81
2021/12/20 05:52:20;;;;;;;31.45;5.07;;;;;;;-141.50;100.00;63355.56;4936809;29;20047;-81
2021/12/20 05:54:47;;;;;;;24.48;4.43;;;;;;;-141.50;100.00;63355.56;4937866;29;20102;-81
2021/12/20 05:57:14;;;;;;;25.10;5.72;;;;;;;-141.50;100.00;63355.56;4941688;28;20705;-83
2021/12/20 05:59:40;;;;;;;30.13;4.93;;;;;;;-141.50;100.00;63355.56;4960846;28;20517;-83
2021/12/20 06:02:07;;;;;;;28.52;5.05;;;;;;;-141.50;100.00;63355.56;4938704;29;20047;-83
2021/12/20 06:04:34;;;;;;;31.42;4.80;;;;;;;-141.50;100.00;63355.56;4952326;28;20056;-83
2021/12/20 06:07:01;;;;;;;28.95;5.60;;;;;;;-141.50;100.00;63355.56;4933363;29;20186;-83
2021/12/20 06:09:28;;;;;;;30.05;5.32;;;;;;;-141.50;100.00;63355.56;4922360;29;20052;-83
2021/12/20 06:11:59;;;;;;;36.53;4.70;;;;;;;-141.50;100.00;63355.56;4949709;28;20059;-83
2021/12/20 06:14:27;;;;;;;22.00;4.63;;;;;;;-141.50;100.00;63355.56;4923497;29;20056;-84
2021/12/20 06:16:55;;;;;;;27.65;4.82;;;;;;;-141.50;100.00;63355.56;4954116;28;20111;-84
2021/12/20 06:19:25;;;;;;;29.75;3.95;;;;;;;-141.50;100.00;63355.56;4925096;29;20107;-84
2021/12/20 06:21:51;;;;;;;21.95;4.45;;;;;;;-141.50;100.00;63355.56;4923776;29;20116;-84
2021/12/20 06:24:18;;;;;;;35.25;4.18;;;;;;;-141.50;100.00;63355.56;4924807;29;20657;-83
2021/12/20 06:26:45;;;;;;;26.17;4.20;;;;;;;-141.50;100.00;63355.56;4924668;29;20501;-83
2021/12/20 06:29:11;;;;;;;22.88;4.00;;;;;;;-141.50;100.00;63355.56;4920541;29;20052;-84
2021/12/20 06:31:38;;;;;;;23.00;3.95;;;;;;;-141.50;100.00;63355.56;4921290;29;20052;-83
2021/12/20 06:34:05;;;;;;;24.27;3.80;;;;;;;-141.50;100.00;63355.56;4923004;29;20123;-83
2021/12/20 06:36:34;;;;;;;32.15;4.30;;;;;;;-141.50;100.00;63355.56;4921280;29;20082;-81
2021/12/20 06:39:01;;;;;;;26.10;3.55;;;;;;;-141.50;100.00;63355.56;4930826;29;20122;-82
2021/12/20 06:41:29;;;;;;;22.52;3.88;;;;;;;-141.50;100.00;63355.56;4963189;29;20061;-81
2021/12/20 06:43:56;;;;;;;27.90;4.47;;;;;;;-141.50;100.00;63355.56;4979112;28;20035;-81
2021/12/20 06:46:24;;;;;;;21.92;3.35;;;;;;;-141.50;100.00;63355.56;4977933;28;20105;-81
2021/12/20 06:48:51;;;;;;;23.88;3.70;;;;;;;-141.50;100.00;63355.56;4965977;28;20051;-81
2021/12/20 06:51:18;;;;;;;23.95;3.70;;;;;;;-141.50;100.00;63355.56;4955214;28;20056;-82
2021/12/20 06:53:44;;;;;;;26.10;4.22;;;;;;;-141.50;100.00;63355.56;4940679;29;20133;-82
2021/12/20 06:56:13;;;;;;;23.13;3.90;;;;;;;-141.50;100.00;63355.56;4958603;28;20286;-83
2021/12/20 06:58:39;;;;;;;21.88;4.05;;;;;;;-141.50;100.00;63355.56;4961445;29;20058;-83
2021/12/20 07:01:06;;;;;;;27.60;4.53;;;;;;;-141.50;100.00;63355.56;4964598;28;20055;-82
2021/12/20 07:03:33;;;;;;;26.60;4.05;;;;;;;-141.50;100.00;63355.56;4965251;28;20051;-83
2021/12/20 07:05:59;;;;;;;27.48;4.13;;;;;;;-141.50;100.00;63355.56;4962241;28;20432;-82
2021/12/20 07:08:26;;;;;;;22.33;3.63;;;;;;;-141.50;100.00;63355.56;4961745;29;20051;-84
2021/12/20 07:10:52;;;;;;;19.23;4.43;;;;;;;-141.50;100.00;63355.56;4949683;28;20070;-83
2021/12/20 07:13:21;;;;;;;32.45;4.40;;;;;;;-141.50;100.00;63355.56;4941557;29;20512;-83
2021/12/20 07:15:48;;;;;;;28.75;4.18;;;;;;;-141.50;100.00;63355.56;4956652;28;20058;-84
2021/12/20 07:18:14;;;;;;;26.27;3.90;;;;;;;-141.50;100.00;63355.56;4941159;29;20039;-82
2021/12/20 07:20:41;;;;;;;19.08;4.20;;;;;;;-141.50;100.00;63355.56;4958125;28;20052;-83
2021/12/20 07:23:07;;;;;;;27.00;4.63;;;;;;;-141.50;100.00;63355.56;4946213;29;20051;-83
2021/12/20 07:25:34;;;;;;;19.77;4.57;;;;;;;-141.50;100.00;63355.56;4948954;29;20059;-82
2021/12/20 07:28:00;;;;;;;24.02;4.32;;;;;;;-141.50;100.00;63355.56;4961667;28;20505;-82
2021/12/20 07:30:27;;;;;;;18.48;3.85;;;;;;;-141.50;100.00;63355.56;4970913;29;20055;-81
2021/12/20 07:32:54;;;;;;;27.75;3.72;;;;;;;-141.50;100.00;63355.56;4968638;29;20051;-82
2021/12/20 07:35:22;;;;;;;24.27;4.10;;;;;;;-141.50;100.00;63355.56;4970722;29;20123;-80
2021/12/20 07:37:51;;;;;;;19.77;4.00;;;;;;;-141.50;100.00;63355.56;4965732;28;20114;-82
2021/12/20 07:40:17;;;;;;;17.80;3.75;;;;;;;-141.50;100.00;63355.56;4947414;29;20059;-82
2021/12/20 07:42:44;;;;;;;26.88;3.83;;;;;;;-141.50;100.00;63355.56;4940585;29;20098;-85
2021/12/20 07:45:11;;;;;;;21.67;3.90;;;;;;;-141.50;100.00;63355.56;4940073;29;20047;-83
2021/12/20 07:47:47;;;;;;;16.17;3.03;;;;;;;-141.50;100.00;63355.56;4940255;29;20562;-84
2021/12/20 07:50:15;;;;;;;21.73;4.65;;;;;;;-141.50;100.00;63355.56;4943573;29;20058;-81
2021/12/20 07:52:42;;;;;;;21.75;4.18;;;;;;;-141.50;100.00;63355.56;4940358;29;20497;-81
2021/12/20 07:55:09;;;;;;;21.95;3.80;;;;;;;-141.50;100.00;63355.56;4936018;29;20056;-84
2021/12/20 07:57:37;;;;;;;17.80;3.78;;;;;;;-141.50;100.00;63355.56;4936612;29;20512;-82
2021/12/20 08:00:06;;;;;;;27.95;4.13;;;;;;;-141.50;100.00;63355.56;4937084;29;20056;-81
2021/12/20 08:02:32;;;;;;;24.15;3.80;;;;;;;-141.50;100.00;63355.56;4954848;28;20414;-84
2021/12/20 08:04:59;;;;;;;18.17;3.60;;;;;;;-141.50;100.00;63355.56;4941498;28;20059;-83
2021/12/20 08:07:26;;;;;;;26.80;4.38;;;;;;;-141.50;100.00;63355.56;4939550;29;20488;-82
2021/12/20 08:09:52;;;;;;;18.75;3.67;;;;;;;-141.50;100.00;63355.56;4952881;29;20042;-83
2021/12/20 08:12:19;;;;;;;30.90;4.53;;;;;;;-141.50;100.00;63355.56;4939881;29;20250;-83
2021/12/20 08:14:46;;;;;;;15.35;3.47;;;;;;;-141.50;100.00;63355.56;4962502;28;20066;-82
2021/12/20 08:17:13;;;;;;;20.58;4.00;;;;;;;-141.50;100.00;63355.56;4957593;28;20147;-83
2021/12/20 08:19:40;;;;;;;20.80;4.90;;;;;;;-141.50;100.00;63355.56;4939984;29;20153;-83
2021/12/20 08:22:06;;;;;;;28.60;5.38;;;;;;;-141.50;100.00;63355.56;4954338;28;20055;-83
2021/12/20 08:24:33;;;;;;;26.05;4.95;;;;;;;-141.50;100.00;63355.56;4954028;29;20137;-83
2021/12/20 08:27:00;;;;;;;20.80;4.43;;;;;;;-141.50;100.00;63355.56;4938436;29;20056;-84
2021/12/20 08:29:27;;;;;;;21.83;4.47;;;;;;;-141.50;100.00;63355.56;4951400;28;20048;-81
2021/12/20 08:31:54;;;;;;;22.52;3.63;;;;;;;-141.50;100.00;63355.56;4937057;29;20105;-83
2021/12/20 08:34:20;;;;;;;17.90;4.82;;;;;;;-141.50;100.00;63355.56;4939157;29;20058;-83
2021/12/20 08:36:47;;;;;;;22.73;4.15;;;;;;;-141.50;100.00;63355.56;4938046;29;20062;-82
2021/12/20 08:39:19;;;;;;;21.40;3.70;;;;;;;-141.50;100.00;63355.56;4955583;29;20055;-82
2021/12/20 08:41:46;;;;;;;17.83;3.00;;;;;;;-141.50;100.00;63355.56;4959865;28;20085;-83
2021/12/20 08:44:13;;;;;;;26.08;3.20;;;;;;;-141.50;100.00;63355.56;4960882;28;20043;-84
2021/12/20 08:46:40;;;;;;;23.15;3.72;;;;;;;-141.50;100.00;63355.56;4960648;28;20114;-84
2021/12/20 08:49:08;;;;;;;20.55;4.38;;;;;;;-141.50;100.00;63355.56;4960866;28;20055;-83
2021/12/20 08:51:37;;;;;;;17.00;3.55;;;;;;;-141.50;100.00;63355.56;4970709;28;20054;-81
2021/12/20 08:54:05;;;;;;;12.75;3.80;;;;;;;-141.50;100.00;63355.56;4964876;28;20055;-82
2021/12/20 08:56:32;;;;;;;16.88;3.30;;;;;;;-141.50;100.00;63355.56;4920917;29;20509;-81
2021/12/20 08:58:59;;;;;;;21.80;3.03;;;;;;;-141.50;100.00;63355.56;4943742;29;20048;-81
2021/12/20 09:01:25;;;;;;;15.73;3.38;;;;;;;-141.50;100.00;63355.56;4929715;29;20048;-83
2021/12/20 09:03:52;;;;;;;18.67;3.10;;;;;;;-141.50;100.00;63355.56;4920213;29;20107;-82
2021/12/20 09:06:23;;;;;;;16.73;3.58;;;;;;;-141.50;100.00;63355.56;4930568;29;20047;-82
2021/12/20 09:08:50;;;;;;;15.73;3.10;;;;;;;-141.50;100.00;63355.56;4938389;29;20118;-82
2021/12/20 09:11:17;;;;;;;16.15;3.20;;;;;;;-141.50;100.00;63355.56;4938545;29;20067;-84
2021/12/20 09:13:57;;;;;;;25.98;3.25;;;;;;;-141.50;100.00;63355.56;4945802;29;20069;-83
2021/12/20 09:16:24;;;;;;;20.90;3.38;;;;;;;-141.50;100.00;63355.56;4939894;29;20075;-84
2021/12/20 09:18:51;;;;;;;15.43;3.00;;;;;;;-141.50;100.00;63355.56;4938851;29;20048;-82
2021/12/20 09:21:17;;;;;;;12.05;2.92;;;;;;;-141.50;100.00;63355.56;4940911;29;20139;-79
2021/12/20 09:23:44;;;;;;;17.15;2.92;;;;;;;-141.50;100.00;63355.56;4939734;29;20044;-82
2021/12/20 09:26:11;;;;;;;14.63;2.78;;;;;;;-141.50;100.00;63355.56;4927941;29;20048;-81
2021/12/20 09:28:38;;;;;;;12.68;2.55;;;;;;;-141.50;100.00;63355.56;4938783;29;20497;-83
2021/12/20 09:31:07;;;;;;;12.05;2.65;;;;;;;-141.50;100.00;63355.56;4937863;29;20110;-83
2021/12/20 09:33:34;;;;;;;14.05;2.80;;;;;;;-141.50;100.00;63355.56;4936851;29;20056;-83
2021/12/20 09:36:05;;;;;;;15.23;2.65;;;;;;;-141.50;100.00;63355.56;4942845;29;20052;-83
2021/12/20 09:38:32;;;;;;;15.48;2.60;;;;;;;-141.50;100.00;63355.56;4935621;28;20047;-83
2021/12/20 09:43:48;;;;;;;15.55;2.60;;;;;;;-141.50;100.00;63355.56;4951855;29;20059;-82
2021/12/20 09:46:16;;;;;;;12.57;3.42;;;;;;;-141.50;100.00;63355.56;4960135;28;20114;-83
2021/12/20 09:48:45;;;;;;;12.32;2.45;;;;;;;-141.50;100.00;63355.56;4958799;29;20051;-81
2021/12/20 09:51:13;;;;;;;12.15;2.20;;;;;;;-141.50;100.00;63355.56;4964728;28;20484;-81
2021/12/20 09:53:41;;;;;;;13.90;3.40;;;;;;;-141.50;100.00;63355.56;4968525;28;20058;-82
2021/12/20 09:56:08;;;;;;;14.10;2.35;;;;;;;-141.50;100.00;63355.56;4968855;28;20286;-83
2021/12/20 09:58:38;;;;;;;13.20;2.20;;;;;;;-141.50;100.00;63355.56;4962727;29;20051;-81
2021/12/20 10:01:08;;;;;;;13.95;2.42;;;;;;;-141.50;100.00;63355.56;4963499;28;20113;-83
2021/12/20 10:03:35;;;;;;;13.50;2.75;;;;;;;-141.50;100.00;63355.56;4960473;28;20058;-83
2021/12/20 10:06:03;;;;;;;15.02;2.42;;;;;;;-141.50;100.00;63355.56;4960503;29;20094;-83
2021/12/20 10:08:32;;;;;;;9.75;2.40;;;;;;;-141.50;100.00;63355.56;4962452;28;20078;-81
2021/12/20 10:11:06;;;;;;;11.30;2.17;;;;;;;-141.50;100.00;63355.56;4962094;28;20055;-81
2021/12/20 10:13:36;;;;;;;10.05;2.28;;;;;;;-141.50;100.00;63355.56;4961810;28;20136;-82
2021/12/20 10:16:14;;;;;;;19.58;2.50;;;;;;;-141.50;100.00;63355.56;4955120;28;20048;-81
2021/12/20 10:18:41;;;;;;;12.95;2.70;;;;;;;-141.50;100.00;63355.56;4946352;29;20075;-82
2021/12/20 10:21:07;;;;;;;11.98;2.40;;;;;;;-141.50;100.00;63355.56;4920976;29;20058;-81
2021/12/20 10:23:41;;;;;;;9.50;2.00;;;;;;;-141.50;100.00;63355.56;4920766;29;20091;-82
2021/12/20 10:26:14;;;;;;;11.63;2.40;;;;;;;-141.50;100.00;63355.56;4921578;29;20056;-80
2021/12/20 10:28:43;;;;;;;16.27;2.38;;;;;;;-141.50;100.00;63355.56;4938035;29;20107;-82
2021/12/20 10:31:11;;;;;;;12.55;2.67;;;;;;;-141.50;100.00;63355.56;4938950;29;20074;-81
2021/12/20 10:33:39;;;;;;;18.75;2.83;;;;;;;-141.50;100.00;63355.56;4939270;29;20488;-82
2021/12/20 10:36:12;;;;;;;17.73;2.72;;;;;;;-141.50;100.00;63355.56;4938525;29;20452;-83
2021/12/20 10:38:44;;;;;;;14.98;2.35;;;;;;;-141.50;100.00;63355.56;4940135;29;20052;-82
2021/12/20 10:41:13;;;;;;;17.55;2.88;;;;;;;-141.50;100.00;63355.56;4940457;29;20083;-83
2021/12/20 10:43:54;;;;;;;14.57;2.40;;;;;;;-141.50;100.00;63355.56;4954518;29;20044;-80
2021/12/20 10:46:23;;;;;;;15.43;2.28;;;;;;;-141.50;100.00;63355.56;4957569;28;20039;-83
2021/12/20 10:48:52;;;;;;;12.10;2.05;;;;;;;-141.50;100.00;63355.56;4957343;29;20246;-84
2021/12/20 10:51:25;;;;;;;12.68;2.05;;;;;;;-141.50;100.00;63355.56;4952269;29;20043;-81
2021/12/20 10:54:02;;;;;;;15.48;2.05;;;;;;;-141.50;100.00;63355.56;4955790;28;20048;-83
2021/12/20 10:56:33;;;;;;;15.55;2.90;;;;;;;-141.50;100.00;63355.56;4958203;29;20162;-83
2021/12/20 10:59:01;;;;;;;14.63;2.42;;;;;;;-141.50;100.00;63355.56;4969381;28;20048;-83
2021/12/20 11:03:08;;;;;;;11.30;2.70;;;;;;;-141.50;100.00;63355.56;4953631;29;20044;-84
2021/12/20 11:04:48;;;;;;;12.40;2.30;;;;;;;-141.50;100.00;63355.56;4941425;29;20344;-84
2021/12/20 11:09:58;;;;;;;10.25;1.92;;;;;;;-141.50;100.00;63355.56;4938582;29;20052;-85
2021/12/20 11:12:29;;;;;;;19.08;2.90;;;;;;;-141.50;100.00;63355.56;4941943;29;20099;-83
2021/12/20 11:15:00;;;;;;;14.77;2.53;;;;;;;-141.50;100.00;63355.56;4944693;29;20063;-81
2021/12/20 11:17:28;;;;;;;11.13;1.92;;;;;;;-141.50;100.00;63355.56;4944088;29;20469;-84
2021/12/20 11:19:56;;;;;;;17.30;2.45;;;;;;;-141.50;100.00;63355.56;4933790;29;20194;-85
2021/12/20 11:22:25;;;;;;;14.10;2.60;;;;;;;-141.50;100.00;63355.56;4931359;29;20051;-85
2021/12/20 11:25:01;;;;;;;18.10;3.25;;;;;;;-141.50;100.00;63355.56;4930522;29;20043;-83
2021/12/20 11:27:43;;;;;;;10.30;2.25;;;;;;;-141.50;100.00;63355.56;4944538;28;20152;-83